createdAt,value
2018-03-06T00:00:24.145Z,986.35
2018-03-06T00:01:24.146Z,986.41
2018-03-06T00:02:24.132Z,986.37
2018-03-06T00:03:24.120Z,986.38
2018-03-06T00:04:24.101Z,986.38
2018-03-06T00:05:24.097Z,986.36
2018-03-06T00:06:24.089Z,986.34
2018-03-06T00:07:24.087Z,986.36
2018-03-06T00:08:24.056Z,986.33
2018-03-06T00:09:24.055Z,986.32
2018-03-06T00:10:24.045Z,986.36
2018-03-06T00:11:24.020Z,986.35
2018-03-06T00:12:24.009Z,986.34
2018-03-06T00:13:23.998Z,986.34
2018-03-06T00:14:24.016Z,986.31
2018-03-06T00:15:23.975Z,986.32
2018-03-06T00:16:23.977Z,986.30
2018-03-06T00:17:23.955Z,986.30
2018-03-06T00:18:23.965Z,986.29
2018-03-06T00:19:23.930Z,986.27
2018-03-06T00:20:23.940Z,986.29
2018-03-06T00:21:23.923Z,986.26
2018-03-06T00:22:23.897Z,986.28
2018-03-06T00:23:23.885Z,986.25
2018-03-06T00:24:23.891Z,986.23
2018-03-06T00:25:23.868Z,986.23
2018-03-06T00:26:23.876Z,986.16
2018-03-06T00:27:23.856Z,986.16
2018-03-06T00:28:23.829Z,986.15
2018-03-06T00:29:23.820Z,986.12
2018-03-06T00:30:23.810Z,986.11
2018-03-06T00:31:23.795Z,986.11
2018-03-06T00:32:23.809Z,986.10
2018-03-06T00:33:23.784Z,986.10
2018-03-06T00:34:23.785Z,986.01
2018-03-06T00:35:23.757Z,986.06
2018-03-06T00:36:23.741Z,986.05
2018-03-06T00:37:23.729Z,986.03
2018-03-06T00:38:23.732Z,986.03
2018-03-06T00:39:23.719Z,986.01
2018-03-06T00:40:23.706Z,986.01
2018-03-06T00:41:23.683Z,986.03
2018-03-06T00:42:23.684Z,986.05
2018-03-06T00:43:23.668Z,986.06
2018-03-06T00:44:23.709Z,986.06
2018-03-06T00:45:23.640Z,986.06
2018-03-06T00:46:23.642Z,986.05
2018-03-06T00:47:23.615Z,986.07
2018-03-06T00:48:23.616Z,986.05
2018-03-06T00:49:23.646Z,986.05
2018-03-06T00:50:23.601Z,986.06
2018-03-06T00:51:23.572Z,986.07
2018-03-06T00:52:23.561Z,986.10
2018-03-06T00:53:23.549Z,986.02
2018-03-06T00:54:23.535Z,986.05
2018-03-06T00:55:23.544Z,986.02
2018-03-06T00:56:23.555Z,986.02
2018-03-06T00:57:23.502Z,986.03
2018-03-06T00:58:23.490Z,986.06
2018-03-06T00:59:23.482Z,986.03
2018-03-06T01:00:23.479Z,985.99
2018-03-06T01:01:23.457Z,986.02
2018-03-06T01:02:23.477Z,986.01
2018-03-06T01:03:23.446Z,985.99
2018-03-06T01:04:23.436Z,985.99
2018-03-06T01:05:23.425Z,985.96
2018-03-06T01:06:23.411Z,985.94
2018-03-06T01:07:23.389Z,985.94
2018-03-06T01:08:23.445Z,985.95
2018-03-06T01:09:23.366Z,985.96
2018-03-06T01:10:23.358Z,985.95
2018-03-06T01:11:23.355Z,985.97
2018-03-06T01:12:23.335Z,985.97
2018-03-06T01:13:23.338Z,985.94
2018-03-06T01:14:23.322Z,985.92
2018-03-06T01:15:23.309Z,985.96
2018-03-06T01:16:23.296Z,985.95
2018-03-06T01:17:23.285Z,985.92
2018-03-06T01:18:23.265Z,985.92
2018-03-06T01:19:23.253Z,985.90
2018-03-06T01:20:23.246Z,985.91
2018-03-06T01:21:23.229Z,985.94
2018-03-06T01:22:23.217Z,985.95
2018-03-06T01:23:23.220Z,985.90
2018-03-06T01:24:23.195Z,985.91
2018-03-06T01:25:23.186Z,985.93
2018-03-06T01:26:23.185Z,985.94
2018-03-06T01:27:23.175Z,985.91
2018-03-06T01:28:23.161Z,985.91
2018-03-06T01:29:23.155Z,985.89
2018-03-06T01:30:23.139Z,985.88
2018-03-06T01:31:23.117Z,985.88
2018-03-06T01:32:23.113Z,985.86
2018-03-06T01:33:23.101Z,985.85
2018-03-06T01:34:23.091Z,985.85
2018-03-06T01:35:23.071Z,985.82
2018-03-06T01:36:23.065Z,985.79
2018-03-06T01:37:23.045Z,985.75
2018-03-06T01:38:23.033Z,985.76
2018-03-06T01:39:23.020Z,985.73
2018-03-06T01:40:23.024Z,985.70
2018-03-06T01:41:23.002Z,985.65
2018-03-06T01:42:22.989Z,985.62
2018-03-06T01:43:22.976Z,985.59
2018-03-06T01:44:22.961Z,985.54
2018-03-06T01:45:22.968Z,985.59
2018-03-06T01:46:22.966Z,985.52
2018-03-06T01:47:22.943Z,985.51
2018-03-06T01:48:22.926Z,985.50
2018-03-06T01:49:22.904Z,985.51
2018-03-06T01:50:22.894Z,985.49
2018-03-06T01:51:22.884Z,985.47
2018-03-06T01:52:22.878Z,985.50
2018-03-06T01:53:22.856Z,985.49
2018-03-06T01:54:22.845Z,985.47
2018-03-06T01:55:22.835Z,985.47
2018-03-06T01:56:22.822Z,985.48
2018-03-06T01:57:22.811Z,985.48
2018-03-06T01:58:22.801Z,985.44
2018-03-06T01:59:22.791Z,985.41
2018-03-06T02:00:22.789Z,985.41
2018-03-06T02:01:22.783Z,985.43
2018-03-06T02:02:22.762Z,985.43
2018-03-06T02:03:22.753Z,985.46
2018-03-06T02:04:22.729Z,985.43
2018-03-06T02:05:22.730Z,985.45
2018-03-06T02:06:22.705Z,985.43
2018-03-06T02:07:22.692Z,985.45
2018-03-06T02:08:22.680Z,985.47
2018-03-06T02:09:22.672Z,985.47
2018-03-06T02:10:22.661Z,985.49
2018-03-06T02:11:22.661Z,985.45
2018-03-06T02:12:22.632Z,985.47
2018-03-06T02:13:22.629Z,985.44
2018-03-06T02:14:22.612Z,985.42
2018-03-06T02:15:22.598Z,985.41
2018-03-06T02:16:22.587Z,985.41
2018-03-06T02:17:22.577Z,985.39
2018-03-06T02:18:22.563Z,985.38
2018-03-06T02:19:22.552Z,985.37
2018-03-06T02:20:22.553Z,985.34
2018-03-06T02:21:22.532Z,985.34
2018-03-06T02:22:22.528Z,985.31
2018-03-06T02:23:22.520Z,985.29
2018-03-06T02:24:22.505Z,985.28
2018-03-06T02:25:22.482Z,985.35
2018-03-06T02:26:22.470Z,985.31
2018-03-06T02:27:22.457Z,985.28
2018-03-06T02:28:22.458Z,985.31
2018-03-06T02:29:22.444Z,985.28
2018-03-06T02:30:22.423Z,985.31
2018-03-06T02:31:22.409Z,985.33
2018-03-06T02:32:22.398Z,985.32
2018-03-06T02:33:22.386Z,985.31
2018-03-06T02:34:22.372Z,985.29
2018-03-06T02:35:22.363Z,985.27
2018-03-06T02:36:22.362Z,985.29
2018-03-06T02:37:22.338Z,985.26
2018-03-06T02:38:22.324Z,985.30
2018-03-06T02:39:22.330Z,985.29
2018-03-06T02:40:22.306Z,985.22
2018-03-06T02:41:22.307Z,985.29
2018-03-06T02:42:22.279Z,985.29
2018-03-06T02:43:22.279Z,985.26
2018-03-06T02:44:22.265Z,985.26
2018-03-06T02:45:22.253Z,985.29
2018-03-06T02:46:22.231Z,985.25
2018-03-06T02:47:22.216Z,985.27
2018-03-06T02:48:22.235Z,985.25
2018-03-06T02:49:22.206Z,985.23
2018-03-06T02:50:22.185Z,985.27
2018-03-06T02:51:22.170Z,985.27
2018-03-06T02:52:22.158Z,985.24
2018-03-06T02:53:22.160Z,985.20
2018-03-06T02:54:22.147Z,985.17
2018-03-06T02:55:22.143Z,985.16
2018-03-06T02:56:22.112Z,985.19
2018-03-06T02:57:22.110Z,985.13
2018-03-06T02:58:22.090Z,985.13
2018-03-06T02:59:22.089Z,985.09
2018-03-06T03:00:22.075Z,985.09
2018-03-06T03:01:22.052Z,985.08
2018-03-06T03:02:22.042Z,985.06
2018-03-06T03:03:22.044Z,985.05
2018-03-06T03:04:22.014Z,985.06
2018-03-06T03:05:22.006Z,985.02
2018-03-06T03:06:22.004Z,984.99
2018-03-06T03:07:21.980Z,985.01
2018-03-06T03:08:21.972Z,984.95
2018-03-06T03:09:21.980Z,984.94
2018-03-06T03:10:21.961Z,984.94
2018-03-06T03:11:21.932Z,984.91
2018-03-06T03:12:21.919Z,984.88
2018-03-06T03:13:21.922Z,984.90
2018-03-06T03:14:21.920Z,984.88
2018-03-06T03:15:21.885Z,984.91
2018-03-06T03:16:21.892Z,984.88
2018-03-06T03:17:21.862Z,984.84
2018-03-06T03:18:21.848Z,984.87
2018-03-06T03:19:21.849Z,984.87
2018-03-06T03:20:21.830Z,984.83
2018-03-06T03:21:21.815Z,984.85
2018-03-06T03:25:28.090Z,984.83
2018-03-06T03:26:27.354Z,984.80
2018-03-06T03:28:20.911Z,984.78
2018-03-06T03:29:20.881Z,984.80
2018-03-06T03:31:14.700Z,984.76
2018-03-06T03:32:14.657Z,984.76
2018-03-06T03:34:08.561Z,984.77
2018-03-06T03:35:08.497Z,984.72
2018-03-06T03:37:02.098Z,984.69
2018-03-06T03:38:02.007Z,984.68
2018-03-06T03:39:55.655Z,984.67
2018-03-06T03:40:55.602Z,984.67
2018-03-06T03:42:50.420Z,984.68
2018-03-06T03:43:50.308Z,984.66
2018-03-06T03:45:44.058Z,984.72
2018-03-06T03:46:43.972Z,984.71
2018-03-06T03:48:37.589Z,984.70
2018-03-06T03:49:37.557Z,984.68
2018-03-06T03:51:32.507Z,984.70
2018-03-06T03:52:31.270Z,984.72
2018-03-06T03:54:24.972Z,984.68
2018-03-06T03:55:24.930Z,984.69
2018-03-06T03:57:18.600Z,984.66
2018-03-06T03:58:18.606Z,984.64
2018-03-06T04:00:12.674Z,984.64
2018-03-06T04:01:12.628Z,984.62
2018-03-06T04:03:07.093Z,984.60
2018-03-06T04:04:07.082Z,984.69
2018-03-06T04:06:01.514Z,984.83
2018-03-06T04:07:01.464Z,984.90
2018-03-06T04:08:55.129Z,985.01
2018-03-06T04:09:55.106Z,984.98
2018-03-06T04:11:48.914Z,984.91
2018-03-06T04:12:48.823Z,984.94
2018-03-06T04:14:43.252Z,984.91
2018-03-06T04:15:42.436Z,984.87
2018-03-06T04:17:36.288Z,984.83
2018-03-06T04:18:36.132Z,984.84
2018-03-06T04:20:30.585Z,984.81
2018-03-06T04:21:29.776Z,984.79
2018-03-06T04:23:23.523Z,984.73
2018-03-06T04:24:23.460Z,984.69
2018-03-06T04:26:17.113Z,984.66
2018-03-06T04:27:17.080Z,984.66
2018-03-06T04:29:12.010Z,984.66
2018-03-06T04:30:11.962Z,984.65
2018-03-06T04:32:05.898Z,984.65
2018-03-06T04:33:05.863Z,984.66
2018-03-06T04:35:00.690Z,984.68
2018-03-06T04:36:00.640Z,984.62
2018-03-06T04:37:56.099Z,984.60
2018-03-06T04:38:54.262Z,984.63
2018-03-06T04:40:48.053Z,984.57
2018-03-06T04:41:47.848Z,984.57
2018-03-06T04:43:41.691Z,984.54
2018-03-06T04:44:41.554Z,984.56
2018-03-06T04:46:35.199Z,984.59
2018-03-06T04:47:35.130Z,984.54
2018-03-06T04:49:28.764Z,984.54
2018-03-06T04:50:28.695Z,984.55
2018-03-06T04:52:22.342Z,984.52
2018-03-06T04:53:22.324Z,984.49
2018-03-06T04:55:16.085Z,984.45
2018-03-06T04:56:15.980Z,984.45
2018-03-06T04:58:09.983Z,984.47
2018-03-06T04:59:09.942Z,984.46
2018-03-06T05:01:05.369Z,984.43
2018-03-06T05:02:04.209Z,984.46
2018-03-06T05:03:57.809Z,984.44
2018-03-06T05:04:57.738Z,984.48
2018-03-06T05:06:51.343Z,984.50
2018-03-06T05:07:51.313Z,984.47
2018-03-06T05:09:45.054Z,984.49
2018-03-06T05:10:44.981Z,984.49
2018-03-06T05:12:39.433Z,984.50
2018-03-06T05:13:38.663Z,984.50
2018-03-06T05:15:32.515Z,984.51
2018-03-06T05:16:32.344Z,984.50
2018-03-06T05:18:26.476Z,984.51
2018-03-06T05:19:26.446Z,984.49
2018-03-06T05:21:20.875Z,984.54
2018-03-06T05:22:20.111Z,984.56
2018-03-06T05:24:13.834Z,984.55
2018-03-06T05:25:13.757Z,984.53
2018-03-06T05:27:07.960Z,984.52
2018-03-06T05:28:07.914Z,984.55
2018-03-06T05:30:02.339Z,984.57
2018-03-06T05:31:01.479Z,984.60
2018-03-06T05:32:55.896Z,984.60
2018-03-06T05:33:55.069Z,984.59
2018-03-06T05:35:48.741Z,984.60
2018-03-06T05:36:48.714Z,984.60
2018-03-06T05:38:42.486Z,984.62
2018-03-06T05:39:42.423Z,984.57
2018-03-06T05:41:36.891Z,984.60
2018-03-06T05:42:36.025Z,984.61
2018-03-06T05:44:29.692Z,984.60
2018-03-06T05:45:29.647Z,984.59
2018-03-06T05:47:23.339Z,984.60
2018-03-06T05:48:23.234Z,984.58
2018-03-06T05:50:16.923Z,984.57
2018-03-06T05:51:16.861Z,984.57
2018-03-06T05:53:11.666Z,984.57
2018-03-06T05:54:11.647Z,984.57
2018-03-06T05:56:06.078Z,984.56
2018-03-06T05:57:06.034Z,984.57
2018-03-06T05:58:59.848Z,984.53
2018-03-06T05:59:59.836Z,984.54
2018-03-06T06:01:53.442Z,984.53
2018-03-06T06:02:53.397Z,984.58
2018-03-06T06:04:46.994Z,984.59
2018-03-06T06:05:46.970Z,984.57
2018-03-06T06:07:40.757Z,984.60
2018-03-06T06:08:40.613Z,984.63
2018-03-06T06:10:34.311Z,984.60
2018-03-06T06:11:34.175Z,984.60
2018-03-06T06:13:27.869Z,984.64
2018-03-06T06:14:27.825Z,984.63
2018-03-06T06:16:22.254Z,984.67
2018-03-06T06:17:21.359Z,984.67
2018-03-06T06:19:14.981Z,984.72
2018-03-06T06:20:14.918Z,984.71
2018-03-06T06:22:10.396Z,984.69
2018-03-06T06:23:09.675Z,984.73
2018-03-06T06:25:03.263Z,984.71
2018-03-06T06:26:03.206Z,984.71
2018-03-06T06:27:56.932Z,984.76
2018-03-06T06:28:56.870Z,984.69
2018-03-06T06:30:50.511Z,984.69
2018-03-06T06:31:50.473Z,984.69
2018-03-06T06:33:44.032Z,984.71
2018-03-06T06:34:44.027Z,984.73
2018-03-06T06:36:37.645Z,984.75
2018-03-06T06:37:37.528Z,984.77
2018-03-06T06:39:31.205Z,984.75
2018-03-06T06:40:31.152Z,984.75
2018-03-06T06:42:25.130Z,984.78
2018-03-06T06:43:25.098Z,984.77
2018-03-06T06:45:19.026Z,984.73
2018-03-06T06:46:18.843Z,984.76
2018-03-06T06:48:12.597Z,984.73
2018-03-06T06:49:12.562Z,984.71
2018-03-06T06:51:06.991Z,984.71
2018-03-06T06:52:06.412Z,984.72
2018-03-06T06:54:00.775Z,984.74
2018-03-06T06:55:00.738Z,984.71
2018-03-06T06:56:54.588Z,984.66
2018-03-06T06:57:54.397Z,984.69
2018-03-06T06:59:48.134Z,984.76
2018-03-06T07:00:48.103Z,984.79
2018-03-06T07:02:41.849Z,984.81
2018-03-06T07:03:41.675Z,984.83
2018-03-06T07:05:35.466Z,984.85
2018-03-06T07:06:35.344Z,984.84
2018-03-06T07:08:28.955Z,984.80
2018-03-06T07:09:28.938Z,984.76
2018-03-06T07:11:22.579Z,984.76
2018-03-06T07:12:23.373Z,984.75
2018-03-06T07:14:16.065Z,984.80
2018-03-06T07:15:16.025Z,984.77
2018-03-06T07:17:10.045Z,984.76
2018-03-06T07:18:09.990Z,984.73
2018-03-06T07:20:03.695Z,984.75
2018-03-06T07:21:03.650Z,984.74
2018-03-06T07:22:58.088Z,984.75
2018-03-06T07:23:57.238Z,984.73
2018-03-06T07:25:51.014Z,984.83
2018-03-06T07:26:50.887Z,984.81
2018-03-06T07:28:45.007Z,984.86
2018-03-06T07:29:44.434Z,984.88
2018-03-06T07:31:38.990Z,984.91
2018-03-06T07:32:38.078Z,984.88
2018-03-06T07:34:31.698Z,984.88
2018-03-06T07:35:31.695Z,984.87
2018-03-06T07:37:25.360Z,984.87
2018-03-06T07:38:25.327Z,984.85
2018-03-06T07:40:19.086Z,984.81
2018-03-06T07:41:19.128Z,984.79
2018-03-06T07:43:12.924Z,984.80
2018-03-06T07:44:12.869Z,984.81
2018-03-06T07:46:07.144Z,984.85
2018-03-06T07:47:07.096Z,984.83
2018-03-06T07:49:00.837Z,984.77
2018-03-06T07:50:00.805Z,984.78
2018-03-06T07:51:54.482Z,984.75
2018-03-06T07:52:54.430Z,984.74
2018-03-06T07:54:48.844Z,984.75
2018-03-06T07:55:48.130Z,984.77
2018-03-06T07:57:41.833Z,984.77
2018-03-06T07:58:41.810Z,984.80
2018-03-06T08:00:35.400Z,984.78
2018-03-06T08:01:35.351Z,984.80
2018-03-06T08:03:28.989Z,984.81
2018-03-06T08:04:28.911Z,984.78
2018-03-06T08:06:22.908Z,984.78
2018-03-06T08:07:22.496Z,984.71
2018-03-06T08:09:16.135Z,984.70
2018-03-06T08:10:16.089Z,984.69
2018-03-06T08:12:10.685Z,984.66
2018-03-06T08:13:10.645Z,984.67
2018-03-06T08:15:05.081Z,984.63
2018-03-06T08:16:05.088Z,984.61
2018-03-06T08:17:58.822Z,984.60
2018-03-06T08:18:58.792Z,984.57
2018-03-06T08:20:53.237Z,984.64
2018-03-06T08:21:52.607Z,984.60
2018-03-06T08:23:46.360Z,984.61
2018-03-06T08:24:46.215Z,984.64
2018-03-06T08:26:40.036Z,984.64
2018-03-06T08:27:39.902Z,984.70
2018-03-06T08:29:33.596Z,984.66
2018-03-06T08:30:33.497Z,984.69
2018-03-06T08:32:27.056Z,984.69
2018-03-06T08:33:27.028Z,984.71
2018-03-06T08:35:21.495Z,984.68
2018-03-06T08:36:20.854Z,984.69
2018-03-06T08:38:14.513Z,984.71
2018-03-06T08:39:14.475Z,984.70
2018-03-06T08:41:08.559Z,984.71
2018-03-06T08:42:08.524Z,984.70
2018-03-06T08:44:02.275Z,984.71
2018-03-06T08:45:02.258Z,984.71
2018-03-06T08:46:55.909Z,984.67
2018-03-06T08:47:55.831Z,984.66
2018-03-06T08:49:49.552Z,984.62
2018-03-06T08:50:49.479Z,984.67
2018-03-06T08:52:43.427Z,984.67
2018-03-06T08:53:43.167Z,984.70
2018-03-06T08:55:38.160Z,984.65
2018-03-06T08:56:37.081Z,984.67
2018-03-06T08:58:30.683Z,984.68
2018-03-06T08:59:30.615Z,984.69
2018-03-06T09:01:25.037Z,984.69
2018-03-06T09:02:24.262Z,984.72
2018-03-06T09:04:19.111Z,984.74
2018-03-06T09:05:19.069Z,984.74
2018-03-06T09:07:12.779Z,984.75
2018-03-06T09:08:12.750Z,984.78
2018-03-06T09:10:07.670Z,984.77
2018-03-06T09:11:07.101Z,984.73
2018-03-06T09:13:00.809Z,984.77
2018-03-06T09:14:00.772Z,984.72
2018-03-06T09:15:54.449Z,984.72
2018-03-06T09:16:54.416Z,984.73
2018-03-06T09:18:52.700Z,984.71
2018-03-06T09:19:49.600Z,984.71
2018-03-06T09:21:47.917Z,984.73
2018-03-06T09:24:36.586Z,984.71
2018-03-06T09:25:35.491Z,984.67
2018-03-06T09:27:36.773Z,984.68
2018-03-06T09:28:29.854Z,984.70
2018-03-06T09:30:23.479Z,984.72
2018-03-06T09:31:22.616Z,984.72
2018-03-06T09:33:17.046Z,984.73
2018-03-06T09:34:16.301Z,984.70
2018-03-06T09:36:11.160Z,984.72
2018-03-06T09:37:11.154Z,984.74
2018-03-06T09:39:05.151Z,984.73
2018-03-06T09:40:05.139Z,984.72
2018-03-06T09:41:58.954Z,984.75
2018-03-06T09:42:58.831Z,984.72
2018-03-06T09:44:53.784Z,984.72
2018-03-06T09:45:52.490Z,984.75
2018-03-06T09:47:46.255Z,984.70
2018-03-06T09:48:46.099Z,984.73
2018-03-06T09:50:39.745Z,984.75
2018-03-06T09:51:39.707Z,984.77
2018-03-06T09:53:33.537Z,984.77
2018-03-06T09:54:33.498Z,984.78
2018-03-06T09:56:27.182Z,984.77
2018-03-06T09:57:27.178Z,984.78
2018-03-06T09:59:20.896Z,984.76
2018-03-06T10:00:20.863Z,984.75
2018-03-06T10:02:14.555Z,984.74
2018-03-06T10:03:14.564Z,984.75
2018-03-06T10:05:09.146Z,984.79
2018-03-06T10:06:09.116Z,984.76
2018-03-06T10:08:02.727Z,984.74
2018-03-06T10:09:02.725Z,984.66
2018-03-06T10:10:56.432Z,984.69
2018-03-06T10:11:56.342Z,984.66
2018-03-06T10:13:50.843Z,984.65
2018-03-06T10:14:49.967Z,984.64
2018-03-06T10:16:43.858Z,984.60
2018-03-06T10:17:43.716Z,984.60
2018-03-06T10:19:37.365Z,984.58
2018-03-06T10:20:37.323Z,984.57
2018-03-06T10:22:31.205Z,984.60
2018-03-06T10:23:31.166Z,984.59
2018-03-06T10:25:25.605Z,984.57
2018-03-06T10:26:24.873Z,984.53
2018-03-06T10:28:18.621Z,984.54
2018-03-06T10:29:18.564Z,984.54
2018-03-06T10:31:13.060Z,984.52
2018-03-06T10:32:13.017Z,984.54
2018-03-06T10:34:07.064Z,984.53
2018-03-06T10:35:07.048Z,984.57
2018-03-06T10:37:00.776Z,984.52
2018-03-06T10:38:00.758Z,984.50
2018-03-06T10:39:54.443Z,984.44
2018-03-06T10:40:54.442Z,984.48
2018-03-06T10:42:48.920Z,984.46
2018-03-06T10:43:48.124Z,984.40
2018-03-06T10:45:41.894Z,984.41
2018-03-06T10:46:41.812Z,984.42
2018-03-06T10:48:36.760Z,984.42
2018-03-06T10:49:35.776Z,984.44
2018-03-06T10:51:29.332Z,984.41
2018-03-06T10:52:29.339Z,984.39
2018-03-06T10:54:26.132Z,984.41
2018-03-06T10:55:23.038Z,984.39
2018-03-06T10:56:23.025Z,984.41
2018-03-06T10:57:23.016Z,984.40
2018-03-06T10:58:23.020Z,984.38
2018-03-06T10:59:23.033Z,984.39
2018-03-06T11:00:23.037Z,984.41
2018-03-06T11:01:23.034Z,984.39
2018-03-06T11:02:23.030Z,984.40
2018-03-06T11:03:23.036Z,984.48
2018-03-06T11:04:23.070Z,984.47
2018-03-06T11:05:23.050Z,984.49
2018-03-06T11:06:23.040Z,984.47
2018-03-06T11:07:23.053Z,984.49
2018-03-06T11:08:23.059Z,984.48
2018-03-06T11:09:23.067Z,984.45
2018-03-06T11:10:23.053Z,984.46
2018-03-06T11:11:23.071Z,984.45
2018-03-06T11:12:23.062Z,984.49
2018-03-06T11:13:23.072Z,984.47
2018-03-06T11:14:23.084Z,984.48
2018-03-06T11:15:23.083Z,984.47
2018-03-06T11:16:23.085Z,984.43
2018-03-06T11:17:23.081Z,984.46
2018-03-06T11:18:23.099Z,984.44
2018-03-06T11:19:23.101Z,984.48
2018-03-06T11:20:23.091Z,984.50
2018-03-06T11:21:23.097Z,984.47
2018-03-06T11:22:23.111Z,984.45
2018-03-06T11:23:23.104Z,984.45
2018-03-06T11:24:23.118Z,984.45
2018-03-06T11:25:23.122Z,984.44
2018-03-06T11:26:23.157Z,984.46
2018-03-06T11:27:23.121Z,984.45
2018-03-06T11:28:23.119Z,984.42
2018-03-06T11:29:23.136Z,984.46
2018-03-06T11:30:23.129Z,984.42
2018-03-06T11:31:23.132Z,984.42
2018-03-06T11:32:23.136Z,984.40
2018-03-06T11:33:23.145Z,984.42
2018-03-06T11:34:23.155Z,984.42
2018-03-06T11:35:23.166Z,984.42
2018-03-06T11:36:23.161Z,984.41
2018-03-06T11:37:23.168Z,984.41
2018-03-06T11:38:23.170Z,984.39
2018-03-06T11:39:23.854Z,984.38
2018-03-06T11:40:23.165Z,984.33
2018-03-06T11:41:23.168Z,984.34
2018-03-06T11:42:23.201Z,984.34
2018-03-06T11:43:23.176Z,984.34
2018-03-06T11:44:23.205Z,984.32
2018-03-06T11:45:23.209Z,984.36
2018-03-06T11:46:23.215Z,984.33
2018-03-06T11:47:23.214Z,984.32
2018-03-06T11:48:23.206Z,984.30
2018-03-06T11:49:23.208Z,984.30
2018-03-06T11:50:23.222Z,984.26
2018-03-06T11:51:23.219Z,984.28
2018-03-06T11:52:23.219Z,984.28
2018-03-06T11:53:23.238Z,984.27
2018-03-06T11:54:23.228Z,984.30
2018-03-06T11:55:23.220Z,984.30
2018-03-06T11:56:23.223Z,984.26
2018-03-06T11:57:23.238Z,984.29
2018-03-06T11:58:23.246Z,984.30
2018-03-06T11:59:23.248Z,984.28
2018-03-06T12:00:23.249Z,984.26
2018-03-06T12:01:23.254Z,984.22
2018-03-06T12:02:23.245Z,984.24
2018-03-06T12:03:23.247Z,984.19
2018-03-06T12:04:23.252Z,984.19
2018-03-06T12:05:23.258Z,984.16
2018-03-06T12:06:23.271Z,984.17
2018-03-06T12:07:23.259Z,984.18
2018-03-06T12:08:23.273Z,984.20
2018-03-06T12:09:23.280Z,984.21
2018-03-06T12:10:23.266Z,984.21
2018-03-06T12:11:23.279Z,984.19
2018-03-06T12:12:23.270Z,984.17
2018-03-06T12:13:23.273Z,984.16
2018-03-06T12:14:23.286Z,984.18
2018-03-06T12:15:23.281Z,984.19
2018-03-06T12:16:23.293Z,984.18
2018-03-06T12:17:23.284Z,984.26
2018-03-06T12:18:23.296Z,984.24
2018-03-06T12:19:23.294Z,984.20
2018-03-06T12:20:23.300Z,984.20
2018-03-06T12:21:23.285Z,984.25
2018-03-06T12:22:23.286Z,984.23
2018-03-06T12:23:23.337Z,984.24
2018-03-06T12:24:23.288Z,984.20
2018-03-06T12:25:23.293Z,984.20
2018-03-06T12:26:23.300Z,984.20
2018-03-06T12:27:23.839Z,984.17
2018-03-06T12:28:23.292Z,984.16
2018-03-06T12:29:23.289Z,984.14
2018-03-06T12:30:23.290Z,984.15
2018-03-06T12:31:23.291Z,984.18
2018-03-06T12:32:23.294Z,984.14
2018-03-06T12:33:23.294Z,984.15
2018-03-06T12:34:23.301Z,984.14
2018-03-06T12:35:23.296Z,984.15
2018-03-06T12:36:23.303Z,984.13
2018-03-06T12:37:23.309Z,984.12
2018-03-06T12:38:23.304Z,984.16
2018-03-06T12:39:23.318Z,984.13
2018-03-06T12:40:23.293Z,984.12
2018-03-06T12:41:23.297Z,984.15
2018-03-06T12:42:23.293Z,984.15
2018-03-06T12:43:23.294Z,984.13
2018-03-06T12:44:23.295Z,984.11
2018-03-06T12:45:23.305Z,984.13
2018-03-06T12:46:23.295Z,984.11
2018-03-06T12:47:23.303Z,984.09
2018-03-06T12:48:23.312Z,984.09
2018-03-06T12:49:23.294Z,984.10
2018-03-06T12:50:23.308Z,984.14
2018-03-06T12:51:23.307Z,984.15
2018-03-06T12:52:23.290Z,984.12
2018-03-06T12:53:23.291Z,984.11
2018-03-06T12:54:23.291Z,984.07
2018-03-06T12:55:23.289Z,984.11
2018-03-06T12:56:23.293Z,984.08
2018-03-06T12:57:23.291Z,984.07
2018-03-06T12:58:23.291Z,984.06
2018-03-06T12:59:23.289Z,984.02
2018-03-06T13:00:23.298Z,984.04
2018-03-06T13:01:23.299Z,984.03
2018-03-06T13:02:23.297Z,984.03
2018-03-06T13:03:23.294Z,984.01
2018-03-06T13:04:23.304Z,984.01
2018-03-06T13:05:23.285Z,984.00
2018-03-06T13:06:23.309Z,984.00
2018-03-06T13:07:23.296Z,983.96
2018-03-06T13:08:23.298Z,984.03
2018-03-06T13:09:23.287Z,983.99
2018-03-06T13:10:23.282Z,984.00
2018-03-06T13:11:23.282Z,984.02
2018-03-06T13:12:23.292Z,983.99
2018-03-06T13:13:23.282Z,984.02
2018-03-06T13:14:23.292Z,983.99
2018-03-06T13:15:23.284Z,983.96
2018-03-06T13:16:23.292Z,983.98
2018-03-06T13:17:23.282Z,983.95
2018-03-06T13:18:23.292Z,983.97
2018-03-06T13:19:23.276Z,983.94
2018-03-06T13:20:23.279Z,983.98
2018-03-06T13:21:23.291Z,983.96
2018-03-06T13:22:23.285Z,983.97
2018-03-06T13:23:23.284Z,983.98
2018-03-06T13:24:23.280Z,983.97
2018-03-06T13:25:23.373Z,983.99
2018-03-06T13:26:23.276Z,983.99
2018-03-06T13:27:23.287Z,983.98
2018-03-06T13:28:23.274Z,983.94
2018-03-06T13:29:23.275Z,983.94
2018-03-06T13:30:23.296Z,983.95
2018-03-06T13:31:23.336Z,983.97
2018-03-06T13:32:23.284Z,983.96
2018-03-06T13:33:23.292Z,983.91
2018-03-06T13:34:23.275Z,983.95
2018-03-06T13:35:23.286Z,983.92
2018-03-06T13:36:23.272Z,983.88
2018-03-06T13:37:23.276Z,983.87
2018-03-06T13:38:23.284Z,983.88
2018-03-06T13:39:23.281Z,983.89
2018-03-06T13:40:23.275Z,983.89
2018-03-06T13:41:23.266Z,983.83
2018-03-06T13:42:23.280Z,983.87
2018-03-06T13:43:23.279Z,983.87
2018-03-06T13:44:23.269Z,983.86
2018-03-06T13:45:23.277Z,983.89
2018-03-06T13:46:23.266Z,983.88
2018-03-06T13:47:23.266Z,983.93
2018-03-06T13:48:23.267Z,983.89
2018-03-06T13:49:23.267Z,983.91
2018-03-06T13:50:23.264Z,983.86
2018-03-06T13:51:23.274Z,983.88
2018-03-06T13:52:23.316Z,983.91
2018-03-06T13:53:23.272Z,983.87
2018-03-06T13:54:23.261Z,983.82
2018-03-06T13:55:23.272Z,983.85
2018-03-06T13:56:23.272Z,983.88
2018-03-06T13:57:23.257Z,983.85
2018-03-06T13:58:23.258Z,983.86
2018-03-06T13:59:23.255Z,983.85
2018-03-06T14:00:23.266Z,983.85
2018-03-06T14:01:23.256Z,983.90
2018-03-06T14:02:23.253Z,983.87
2018-03-06T14:03:23.270Z,983.88
2018-03-06T14:04:23.249Z,983.87
2018-03-06T14:05:23.261Z,983.86
2018-03-06T14:06:23.248Z,983.88
2018-03-06T14:07:23.247Z,983.83
2018-03-06T14:08:23.256Z,983.84
2018-03-06T14:09:23.255Z,983.85
2018-03-06T14:10:23.245Z,983.84
2018-03-06T14:11:23.240Z,983.83
2018-03-06T14:12:23.255Z,983.83
2018-03-06T14:13:23.236Z,983.86
2018-03-06T14:14:23.255Z,983.86
2018-03-06T14:15:23.242Z,983.80
2018-03-06T14:16:23.236Z,983.81
2018-03-06T14:17:23.236Z,983.88
2018-03-06T14:18:23.231Z,983.82
2018-03-06T14:19:23.225Z,983.78
2018-03-06T14:20:23.227Z,983.78
2018-03-06T14:21:23.226Z,983.80
2018-03-06T14:22:23.222Z,983.76
2018-03-06T14:23:23.225Z,983.72
2018-03-06T14:24:23.220Z,983.71
2018-03-06T14:25:23.228Z,983.73
2018-03-06T14:26:23.234Z,983.72
2018-03-06T14:27:23.241Z,983.71
2018-03-06T14:28:23.225Z,983.67
2018-03-06T14:29:23.229Z,983.71
2018-03-06T14:30:23.223Z,983.65
2018-03-06T14:31:23.219Z,983.62
2018-03-06T14:32:23.216Z,983.65
2018-03-06T14:33:23.226Z,983.63
2018-03-06T14:34:23.220Z,983.62
2018-03-06T14:35:23.222Z,983.64
2018-03-06T14:36:23.223Z,983.60
2018-03-06T14:37:23.233Z,983.64
2018-03-06T14:38:23.236Z,983.62
2018-03-06T14:39:23.217Z,983.60
2018-03-06T14:40:23.237Z,983.57
2018-03-06T14:41:23.197Z,983.63
2018-03-06T14:42:23.175Z,983.62
2018-03-06T14:43:23.171Z,983.66
2018-03-06T14:44:23.173Z,983.63
2018-03-06T14:45:23.166Z,983.63
2018-03-06T14:46:23.176Z,983.64
2018-03-06T14:47:23.162Z,983.63
2018-03-06T14:48:23.173Z,983.65
2018-03-06T14:49:23.167Z,983.64
2018-03-06T14:50:23.155Z,983.60
2018-03-06T14:51:23.186Z,983.56